Time;durP1;ratioP1;P1;durP2;ratioP2;P2;SDS_P1;SDS_P2;PMS_P1;PMS_P2;Temp;Humidity;BMP_temperature;BMP_pressure;BME280_temperature;BME280_humidity;BME280_pressure;Samples;Min_cycle;Max_cycle;Signal;HPM_P1;HPM_P2
2021/08/17 00:01:11;;;;;;;16.45;10.15;;;;;;;19.76;68.60;99801.94;5030409;28;20084;-75
2021/08/17 00:03:37;;;;;;;15.77;10.13;;;;;;;19.65;68.66;99785.78;5044038;28;20090;-74
2021/08/17 00:06:04;;;;;;;12.05;9.35;;;;;;;19.64;68.62;99782.25;5056316;28;20049;-74
2021/08/17 00:08:30;;;;;;;13.65;9.82;;;;;;;19.73;68.49;99794.19;5069109;28;20039;-74
2021/08/17 00:10:57;;;;;;;13.13;9.27;;;;;;;19.78;68.53;99786.06;5053813;28;20040;-79
2021/08/17 00:13:23;;;;;;;14.20;8.90;;;;;;;19.81;68.35;99789.38;5037046;28;20048;-76
2021/08/17 00:15:49;;;;;;;13.05;10.80;;;;;;;19.77;67.94;99784.34;5036043;28;20033;-77
2021/08/17 00:18:15;;;;;;;13.80;9.48;;;;;;;19.70;68.53;99779.34;5052774;28;20392;-75
2021/08/17 00:20:41;;;;;;;15.65;10.20;;;;;;;19.78;68.46;99793.97;5055865;28;20079;-73
2021/08/17 00:23:07;;;;;;;12.82;9.85;;;;;;;19.74;68.40;99788.00;5052086;28;20048;-75
2021/08/17 00:25:34;;;;;;;12.52;9.57;;;;;;;19.69;68.13;99788.19;5052337;28;20044;-77
2021/08/17 00:28:03;;;;;;;11.68;8.77;;;;;;;19.74;68.56;99795.91;5051382;28;20036;-76
2021/08/17 00:30:29;;;;;;;12.55;9.80;;;;;;;19.62;68.56;99780.63;5051360;28;20063;-76
2021/08/17 00:32:55;;;;;;;17.45;10.63;;;;;;;19.49;68.21;99760.09;5052699;28;20033;-75
2021/08/17 00:35:25;;;;;;;16.05;10.20;;;;;;;19.41;68.44;99751.69;5054232;28;20040;-74
2021/08/17 00:37:52;;;;;;;17.65;10.00;;;;;;;19.63;68.49;99791.13;5054189;28;20033;-78
2021/08/17 00:40:18;;;;;;;15.27;10.73;;;;;;;19.49;68.58;99775.94;5072104;28;20108;-76
2021/08/17 00:42:46;;;;;;;17.15;9.93;;;;;;;19.59;68.50;99796.59;5049967;28;20048;-74
2021/08/17 00:45:17;;;;;;;17.48;10.30;;;;;;;19.44;68.43;99783.22;5057653;28;20048;-75
2021/08/17 00:47:43;;;;;;;21.13;11.07;;;;;;;19.45;68.34;99791.97;5054460;28;20040;-77
2021/08/17 00:50:09;;;;;;;23.55;11.32;;;;;;;19.38;68.62;99788.75;5051999;28;20100;-77
2021/08/17 00:52:35;;;;;;;15.68;12.00;;;;;;;19.35;68.53;99791.53;5037037;28;20063;-78
2021/08/17 00:55:01;;;;;;;15.45;10.55;;;;;;;19.25;68.85;99786.69;5054410;28;20049;-77
2021/08/17 00:57:28;;;;;;;23.80;15.55;;;;;;;19.17;68.98;99783.53;5035077;28;20119;-76
2021/08/17 00:59:54;;;;;;;17.55;11.48;;;;;;;19.21;68.84;99793.03;5050601;28;20044;-79
2021/08/17 01:06:58;;;;;;;17.23;12.32;;;;;;;19.02;69.57;99769.25;5040786;28;20048;-76
2021/08/17 01:09:24;;;;;;;21.10;11.07;;;;;;;19.01;69.58;99770.16;5047953;28;20029;-80
2021/08/17 01:11:50;;;;;;;21.65;12.30;;;;;;;18.97;69.72;99779.16;5044898;28;20183;-79
2021/08/17 01:14:20;;;;;;;22.35;12.80;;;;;;;18.92;69.76;99762.66;5025474;28;20533;-77
2021/08/17 01:16:47;;;;;;;18.88;13.95;;;;;;;18.94;69.59;99777.47;5042555;28;20039;-76
2021/08/17 01:19:15;;;;;;;24.75;13.40;;;;;;;18.97;69.63;99776.53;5045494;28;20052;-76
2021/08/17 01:21:41;;;;;;;25.42;14.18;;;;;;;18.95;69.97;99773.09;5046824;28;20048;-78
2021/08/17 01:24:08;;;;;;;31.15;16.48;;;;;;;18.92;69.88;99774.03;5046389;28;20036;-78
2021/08/17 01:26:33;;;;;;;23.63;14.57;;;;;;;18.79;70.02;99754.41;5045999;28;20065;-77
2021/08/17 01:28:59;;;;;;;20.88;13.98;;;;;;;18.90;70.04;99777.69;5046029;28;20076;-77
2021/08/17 01:31:25;;;;;;;26.08;15.52;;;;;;;18.82;70.16;99767.47;5045096;28;20033;-77
2021/08/17 01:33:51;;;;;;;23.33;14.52;;;;;;;18.82;70.28;99778.00;5028551;28;20411;-78
2021/08/17 01:36:17;;;;;;;26.65;15.73;;;;;;;18.72;70.42;99771.41;5045135;28;20381;-76
2021/08/17 01:38:47;;;;;;;25.13;16.23;;;;;;;18.55;70.19;99744.03;5046540;28;20068;-79
2021/08/17 01:41:14;;;;;;;21.63;15.63;;;;;;;18.64;70.75;99772.63;5045448;28;20550;-77
2021/08/17 01:43:40;;;;;;;22.38;14.63;;;;;;;18.66;71.04;99773.38;5048004;28;20798;-78
2021/08/17 01:46:06;;;;;;;24.85;13.77;;;;;;;18.49;71.11;99750.41;5030912;28;20044;-76
2021/08/17 01:48:32;;;;;;;17.23;11.55;;;;;;;18.46;71.15;99742.63;5046005;28;20076;-78
2021/08/17 01:50:59;;;;;;;15.50;10.85;;;;;;;18.65;71.40;99773.47;5030922;28;20048;-77
2021/08/17 01:53:26;;;;;;;19.65;11.95;;;;;;;18.63;71.38;99759.50;5035045;28;20036;-77
2021/08/17 01:55:53;;;;;;;15.40;10.88;;;;;;;18.73;71.53;99779.28;5034075;28;20125;-78
2021/08/17 01:58:22;;;;;;;15.75;11.32;;;;;;;18.76;71.58;99787.03;5034108;28;20066;-79
2021/08/17 02:00:48;;;;;;;14.35;10.30;;;;;;;18.77;71.60;99780.81;5035098;28;20358;-77
2021/08/17 02:03:14;;;;;;;14.88;9.73;;;;;;;18.81;71.77;99776.31;5036575;28;20038;-76
2021/08/17 02:05:39;;;;;;;17.35;9.85;;;;;;;18.87;71.56;99786.56;5036047;28;20033;-77
2021/08/17 02:08:05;;;;;;;15.32;10.05;;;;;;;18.75;71.48;99768.66;5034885;28;20441;-78
2021/08/17 02:10:32;;;;;;;16.42;11.18;;;;;;;18.86;71.35;99795.41;5034699;28;20044;-77
2021/08/17 02:12:57;;;;;;;15.50;12.13;;;;;;;18.80;71.83;99774.59;5034889;28;20053;-76
2021/08/17 02:15:23;;;;;;;14.40;11.02;;;;;;;18.87;71.68;99790.97;5063211;28;20068;-76
2021/08/17 02:17:49;;;;;;;14.95;11.75;;;;;;;18.75;71.72;99777.44;5058934;28;20067;-77
2021/08/17 02:20:15;;;;;;;15.50;10.80;;;;;;;18.87;71.61;99802.38;5065995;28;20076;-79
2021/08/17 02:22:40;;;;;;;16.83;12.10;;;;;;;18.84;71.55;99799.91;5020138;28;20028;-75
2021/08/17 02:25:07;;;;;;;20.80;12.50;;;;;;;18.86;71.62;99805.97;5038730;28;20508;-78
2021/08/17 02:27:37;;;;;;;18.90;10.80;;;;;;;18.73;71.68;99795.09;5036847;28;20037;-77
2021/08/17 02:30:04;;;;;;;19.30;11.35;;;;;;;18.89;71.73;99847.97;5052425;28;20075;-78
2021/08/17 02:32:30;;;;;;;30.50;18.67;;;;;;;18.97;71.86;99850.34;5038136;28;20603;-77
2021/08/17 02:34:56;;;;;;;14.35;11.20;;;;;;;18.87;71.77;99833.16;5045733;28;20055;-80
2021/08/17 02:37:22;;;;;;;14.30;9.68;;;;;;;19.12;71.65;99861.97;5038666;28;20042;-74
2021/08/17 02:39:48;;;;;;;21.38;10.88;;;;;;;19.25;71.61;99859.66;5047632;28;20523;-77
2021/08/17 02:42:13;;;;;;;14.82;10.43;;;;;;;19.18;71.34;99830.06;5021516;28;20037;-78
2021/08/17 02:44:39;;;;;;;17.15;10.73;;;;;;;19.31;71.23;99859.41;5052545;28;20099;-78
2021/08/17 02:47:05;;;;;;;16.85;11.27;;;;;;;19.44;71.06;99861.47;5052669;28;20051;-78
2021/08/17 02:49:32;;;;;;;20.00;12.30;;;;;;;19.38;70.71;99845.03;5051863;28;20089;-79
2021/08/17 02:52:04;;;;;;;20.45;12.18;;;;;;;19.47;70.55;99856.06;5053046;28;20041;-78
2021/08/17 02:54:35;;;;;;;18.75;11.77;;;;;;;19.45;70.73;99850.00;5053463;28;20093;-77
2021/08/17 02:57:01;;;;;;;22.30;13.68;;;;;;;19.39;70.47;99843.22;5052274;28;20033;-77
2021/08/17 02:59:27;;;;;;;20.83;11.88;;;;;;;19.40;70.42;99860.78;5052662;28;20049;-77
2021/08/17 03:01:53;;;;;;;18.45;11.40;;;;;;;19.45;70.38;99872.00;5052566;28;20365;-75
2021/08/17 03:04:18;;;;;;;17.15;11.23;;;;;;;19.24;70.40;99834.22;5052918;28;20427;-78
2021/08/17 03:06:44;;;;;;;17.60;11.55;;;;;;;19.37;70.35;99871.47;5036379;28;20433;-78
2021/08/17 03:09:10;;;;;;;21.50;11.52;;;;;;;19.30;70.55;99864.75;5041959;28;20398;-77
2021/08/17 03:11:35;;;;;;;18.15;12.05;;;;;;;19.39;70.54;99859.06;5031231;28;20785;-80
2021/08/17 03:14:01;;;;;;;15.48;11.63;;;;;;;19.34;70.63;99853.13;5049349;28;21063;-79
2021/08/17 03:16:27;;;;;;;19.92;12.43;;;;;;;19.42;70.59;99864.19;5049268;28;20068;-77
2021/08/17 03:18:53;;;;;;;15.63;11.07;;;;;;;19.52;70.55;99869.94;5035315;28;20428;-78
2021/08/17 03:21:22;;;;;;;15.30;11.45;;;;;;;19.63;70.46;99882.63;5051428;28;20051;-76
2021/08/17 03:23:48;;;;;;;18.17;11.52;;;;;;;19.68;70.48;99876.22;5051809;28;20500;-78
2021/08/17 03:26:14;;;;;;;18.70;12.30;;;;;;;19.85;70.15;99872.81;5034642;28;20050;-74
2021/08/17 03:28:40;;;;;;;19.25;12.05;;;;;;;19.95;70.15;99857.41;5014774;28;20045;-77
2021/08/17 03:31:06;;;;;;;20.80;12.15;;;;;;;20.15;69.82;99876.75;5031893;28;20041;-76
2021/08/17 03:33:32;;;;;;;18.42;11.30;;;;;;;20.21;69.94;99876.47;5013816;28;20041;-75
2021/08/17 03:35:58;;;;;;;22.77;12.23;;;;;;;20.24;69.77;99857.84;5030808;28;20043;-79
2021/08/17 03:38:24;;;;;;;19.67;11.63;;;;;;;20.42;69.38;99885.13;5030501;28;20041;-75
2021/08/17 03:40:50;;;;;;;19.70;12.30;;;;;;;20.54;69.37;99869.63;5031079;28;20041;-76
2021/08/17 03:43:16;;;;;;;20.80;11.70;;;;;;;20.72;69.33;99887.19;5044222;28;20515;-76
2021/08/17 03:45:41;;;;;;;20.52;10.95;;;;;;;20.79;68.86;99885.13;5050974;28;20037;-78
2021/08/17 03:48:07;;;;;;;18.08;12.23;;;;;;;20.90;68.12;99884.59;5050812;28;20152;-77
2021/08/17 03:50:33;;;;;;;17.48;10.98;;;;;;;21.01;68.48;99891.97;5050228;28;20106;-79
2021/08/17 03:52:59;;;;;;;13.85;9.80;;;;;;;21.06;68.02;99871.44;5052653;28;20152;-77
2021/08/17 03:55:25;;;;;;;17.30;10.63;;;;;;;21.25;68.02;99876.66;5054198;28;20076;-79
2021/08/17 03:57:51;;;;;;;16.10;9.30;;;;;;;21.46;67.36;99889.69;5054488;28;20194;-78
2021/08/17 04:00:20;;;;;;;11.70;8.52;;;;;;;21.64;67.00;99885.22;5055029;28;20040;-75
2021/08/17 04:02:45;;;;;;;15.15;8.23;;;;;;;21.65;66.20;99860.44;5054058;28;20041;-77
2021/08/17 04:05:12;;;;;;;11.48;8.30;;;;;;;22.06;65.92;99882.97;5053110;28;20643;-76
2021/08/17 04:07:38;;;;;;;12.73;7.55;;;;;;;22.30;64.99;99879.88;5052521;28;20626;-76
2021/08/17 04:10:05;;;;;;;9.85;7.43;;;;;;;22.58;64.39;99887.13;5000106;28;20412;-79
2021/08/17 04:12:38;;;;;;;8.70;7.10;;;;;;;22.93;63.38;99891.31;5035931;28;20053;-77
2021/08/17 04:15:09;;;;;;;8.40;7.20;;;;;;;23.24;63.07;99886.88;5023226;28;20487;-79
2021/08/17 04:17:36;;;;;;;12.05;7.53;;;;;;;23.66;62.10;99882.53;5054593;28;20067;-79
2021/08/17 04:20:07;;;;;;;11.40;7.03;;;;;;;23.93;60.94;99879.09;5064844;28;20120;-75
2021/08/17 04:22:33;;;;;;;11.57;6.90;;;;;;;24.22;60.18;99881.69;5055886;28;20119;-76
2021/08/17 04:25:01;;;;;;;12.60;6.35;;;;;;;24.52;59.58;99886.81;5070829;28;20105;-77
2021/08/17 04:27:26;;;;;;;8.27;5.75;;;;;;;24.73;58.32;99877.56;5050681;28;20037;-76
2021/08/17 04:29:52;;;;;;;9.13;5.72;;;;;;;24.99;57.98;99877.59;5051968;28;20116;-78
2021/08/17 04:32:18;;;;;;;9.15;5.53;;;;;;;25.06;56.94;99871.75;5054199;28;20501;-75
2021/08/17 04:34:44;;;;;;;8.85;5.47;;;;;;;25.24;55.90;99877.63;5065263;28;20047;-76
2021/08/17 04:37:09;;;;;;;9.50;5.20;;;;;;;25.40;55.53;99901.34;5058538;28;20089;-77
2021/08/17 04:39:36;;;;;;;7.45;5.18;;;;;;;25.40;54.45;99885.38;5057452;28;20041;-76
2021/08/17 04:42:02;;;;;;;9.77;5.80;;;;;;;25.39;54.20;99877.50;5039175;28;20540;-77
2021/08/17 04:44:28;;;;;;;7.82;5.28;;;;;;;25.21;53.74;99855.66;5056431;28;20075;-79
2021/08/17 04:46:53;;;;;;;8.15;5.90;;;;;;;25.16;53.72;99869.31;5057875;28;20037;-79
2021/08/17 04:49:19;;;;;;;7.05;5.00;;;;;;;25.18;53.77;99872.72;5057607;28;20464;-77
2021/08/17 04:51:45;;;;;;;10.43;5.93;;;;;;;25.16;53.56;99879.97;5040058;28;20044;-75
2021/08/17 04:54:11;;;;;;;8.98;5.65;;;;;;;25.07;53.59;99872.59;5056012;28;20047;-79
2021/08/17 04:56:37;;;;;;;6.97;5.50;;;;;;;25.04;53.83;99871.00;5056960;28;20051;-77
2021/08/17 04:59:03;;;;;;;7.68;6.00;;;;;;;25.08;53.09;99874.28;5055844;28;20049;-74
2021/08/17 05:01:30;;;;;;;8.70;5.25;;;;;;;25.07;53.18;99872.59;5005882;28;20122;-74
2021/08/17 05:03:56;;;;;;;8.32;5.50;;;;;;;25.09;52.87;99876.00;5056182;28;20037;-76
2021/08/17 05:06:22;;;;;;;10.55;5.63;;;;;;;25.05;53.07;99863.84;5056921;28;20476;-76
2021/08/17 05:08:47;;;;;;;10.00;4.95;;;;;;;25.13;52.94;99861.53;5044888;28;20037;-76
2021/08/17 05:11:13;;;;;;;10.13;5.55;;;;;;;25.12;52.82;99841.19;5019556;28;20042;-77
2021/08/17 05:13:41;;;;;;;6.78;5.72;;;;;;;25.32;52.56;99866.44;5036594;28;20050;-76
2021/08/17 05:16:07;;;;;;;7.60;4.82;;;;;;;25.39;52.30;99854.38;5051008;28;20479;-76
2021/08/17 05:18:35;;;;;;;9.93;5.25;;;;;;;25.49;52.16;99851.13;5056958;28;20045;-76
2021/08/17 05:21:04;;;;;;;11.48;5.38;;;;;;;25.51;52.14;99850.03;5055991;28;20049;-76
2021/08/17 05:23:30;;;;;;;8.82;5.05;;;;;;;25.63;51.70;99842.16;5056225;28;20033;-76
2021/08/17 05:25:59;;;;;;;8.77;5.38;;;;;;;25.76;51.74;99842.97;5054839;28;20041;-77
2021/08/17 05:28:26;;;;;;;10.57;5.63;;;;;;;25.89;51.49;99836.75;5038020;28;20098;-77
2021/08/17 05:30:52;;;;;;;9.20;5.60;;;;;;;25.85;51.69;99814.78;5053671;28;20044;-77
2021/08/17 05:33:26;;;;;;;9.40;5.75;;;;;;;25.83;50.73;99768.75;5038149;28;20044;-79
2021/08/17 05:35:51;;;;;;;10.00;5.95;;;;;;;26.27;51.01;99814.44;5037536;28;20048;-79
2021/08/17 05:38:17;;;;;;;10.10;5.35;;;;;;;27.39;50.61;99822.00;5036171;28;20543;-78
2021/08/17 05:40:55;;;;;;;11.80;5.63;;;;;;;28.67;48.19;99803.56;5054028;28;20491;-80
2021/08/17 05:43:25;;;;;;;7.88;5.45;;;;;;;29.52;46.84;99829.41;5053789;28;20036;-77
2021/08/17 05:45:52;;;;;;;9.82;4.90;;;;;;;30.91;45.63;99818.66;5055014;28;20416;-77
2021/08/17 05:48:28;;;;;;;8.98;4.50;;;;;;;31.63;41.95;99742.88;5054923;28;20427;-77
2021/08/17 05:50:57;;;;;;;6.65;4.90;;;;;;;32.56;39.93;99752.44;5057202;28;20124;-80
2021/08/17 05:53:29;;;;;;;7.63;5.32;;;;;;;33.47;38.11;99723.28;5038344;28;20045;-79
2021/08/17 05:55:59;;;;;;;5.85;4.97;;;;;;;34.74;35.90;99782.44;5056044;28;20114;-78
2021/08/17 05:58:31;;;;;;;9.65;5.35;;;;;;;34.07;34.80;99678.22;5037544;28;20047;-77
2021/08/17 06:01:11;;;;;;;6.88;5.07;;;;;;;35.11;34.79;99743.16;5054010;28;20073;-77
2021/08/17 06:03:52;;;;;;;8.55;4.90;;;;;;;36.70;32.63;99779.84;5052479;28;20544;-77
2021/08/17 06:06:21;;;;;;;7.85;4.55;;;;;;;37.54;30.93;99791.44;5036090;28;20052;-78
2021/08/17 06:08:47;;;;;;;6.72;4.95;;;;;;;38.44;29.99;99779.41;5043264;28;20509;-79
2021/08/17 06:11:17;;;;;;;10.20;5.20;;;;;;;38.85;28.99;99762.38;5049451;28;20124;-76
2021/08/17 06:13:54;;;;;;;10.02;6.10;;;;;;;39.10;27.53;99770.03;5034425;28;20053;-77
2021/08/17 06:16:29;;;;;;;8.48;5.25;;;;;;;38.35;28.29;99795.00;5052006;28;20053;-76
2021/08/17 06:18:54;;;;;;;8.85;5.43;;;;;;;37.97;28.14;99785.25;5054719;28;20109;-76
2021/08/17 06:21:25;;;;;;;9.82;5.32;;;;;;;38.46;28.32;99785.50;5053417;28;20040;-78
2021/08/17 06:23:57;;;;;;;8.70;5.45;;;;;;;40.01;26.79;99787.13;5058546;28;20037;-75
2021/08/17 06:26:34;;;;;;;12.35;6.55;;;;;;;40.24;24.92;99696.00;5059805;28;20033;-77
2021/08/17 06:29:00;;;;;;;10.40;5.88;;;;;;;41.27;24.27;99770.03;5073319;28;20037;-79
2021/08/17 06:31:26;;;;;;;12.20;6.63;;;;;;;41.55;24.31;99761.50;5062783;28;20467;-76
2021/08/17 06:33:56;;;;;;;10.55;5.63;;;;;;;41.60;23.16;99782.66;5054978;28;20407;-76
2021/08/17 06:36:23;;;;;;;11.57;5.95;;;;;;;40.90;23.78;99768.63;5019264;28;20462;-76
2021/08/17 06:38:52;;;;;;;10.73;6.18;;;;;;;39.62;24.03;99748.69;5053433;28;20079;-77
2021/08/17 06:41:21;;;;;;;8.05;5.93;;;;;;;39.67;23.76;99778.84;5051386;28;20140;-78
2021/08/17 06:43:52;;;;;;;9.40;6.20;;;;;;;39.56;23.58;99768.56;5051613;28;20412;-77
2021/08/17 06:46:23;;;;;;;21.27;6.82;;;;;;;40.08;24.15;99778.94;5053339;28;20047;-78
2021/08/17 06:48:56;;;;;;;11.35;6.50;;;;;;;40.19;24.28;99743.75;5021130;28;20071;-77
2021/08/17 06:51:22;;;;;;;8.15;6.32;;;;;;;40.81;23.40;99697.13;5053456;28;20037;-79
2021/08/17 06:53:51;;;;;;;10.32;6.82;;;;;;;41.54;21.89;99736.09;5036767;28;20087;-76
2021/08/17 06:56:20;;;;;;;11.70;6.68;;;;;;;42.42;21.14;99798.31;5020833;28;20434;-78
2021/08/17 06:58:47;;;;;;;6.50;5.38;;;;;;;42.72;21.19;99731.97;5054984;28;20033;-77
2021/08/17 07:01:28;;;;;;;8.10;6.13;;;;;;;43.26;20.26;99707.56;5042473;28;20560;-77
2021/08/17 07:03:53;;;;;;;8.77;6.00;;;;;;;43.37;20.65;99795.44;5036048;28;20037;-77
2021/08/17 07:06:19;;;;;;;8.95;5.85;;;;;;;42.75;20.73;99786.22;5019573;28;20053;-78
2021/08/17 07:08:45;;;;;;;8.30;5.75;;;;;;;43.18;20.87;99801.72;5026876;28;20049;-78
2021/08/17 07:11:16;;;;;;;10.07;6.95;;;;;;;42.31;20.69;99791.66;5000505;28;20049;-77
2021/08/17 07:13:44;;;;;;;8.95;6.07;;;;;;;42.12;20.50;99783.41;5033194;28;20049;-78
2021/08/17 07:16:10;;;;;;;10.48;5.75;;;;;;;42.53;21.27;99794.00;5046123;28;20068;-79
2021/08/17 07:18:36;;;;;;;9.20;6.63;;;;;;;43.52;20.23;99784.91;5054267;28;20090;-79
2021/08/17 07:21:02;;;;;;;9.07;6.82;;;;;;;44.01;18.78;99786.75;5052195;28;20044;-78
2021/08/17 07:23:29;;;;;;;11.82;6.40;;;;;;;43.29;18.69;99788.38;5052455;28;20037;-77
2021/08/17 07:25:54;;;;;;;10.15;6.60;;;;;;;42.85;19.32;99791.19;5036479;28;20110;-78
2021/08/17 07:28:24;;;;;;;11.23;6.15;;;;;;;42.45;19.96;99776.81;5036393;28;20596;-78
2021/08/17 07:31:08;;;;;;;9.90;6.38;;;;;;;42.11;20.12;99764.50;5018072;28;20068;-77
2021/08/17 07:33:34;;;;;;;11.07;6.10;;;;;;;42.78;19.81;99684.56;5016918;28;20063;-78
2021/08/17 07:36:00;;;;;;;10.48;6.15;;;;;;;43.56;18.80;99739.56;5052211;28;20033;-77
2021/08/17 07:38:25;;;;;;;7.15;5.82;;;;;;;43.96;18.38;99772.91;5051982;28;20483;-77
2021/08/17 07:40:57;;;;;;;10.20;6.38;;;;;;;43.69;19.32;99763.22;5052281;28;20036;-78
2021/08/17 07:43:42;;;;;;;10.48;6.32;;;;;;;44.94;18.56;99778.00;5050720;28;20037;-78
2021/08/17 07:46:11;;;;;;;6.57;5.90;;;;;;;45.13;18.02;99789.66;5034027;28;20041;-77
2021/08/17 07:48:37;;;;;;;8.20;5.63;;;;;;;44.29;18.17;99785.28;5051600;28;20037;-77
2021/08/17 07:51:04;;;;;;;10.30;6.05;;;;;;;43.94;18.73;99784.13;5050308;28;20385;-78
2021/08/17 07:53:30;;;;;;;9.65;6.05;;;;;;;44.39;18.65;99750.72;5049959;28;20086;-78
2021/08/17 07:55:58;;;;;;;7.18;6.30;;;;;;;45.02;17.64;99790.50;5051348;28;20041;-76
2021/08/17 07:58:34;;;;;;;7.38;6.10;;;;;;;44.87;17.27;99715.06;5033256;28;21102;-76
2021/08/17 08:01:00;;;;;;;7.32;5.30;;;;;;;44.18;18.06;99737.59;5033687;28;20471;-77
2021/08/17 08:03:26;;;;;;;10.07;6.30;;;;;;;44.87;17.47;99799.25;5049580;28;20045;-77
2021/08/17 08:05:53;;;;;;;15.38;6.10;;;;;;;45.27;17.57;99744.41;5051491;28;20098;-77
2021/08/17 08:08:19;;;;;;;10.50;5.50;;;;;;;45.75;17.30;99710.38;5045007;28;20037;-77
2021/08/17 08:10:47;;;;;;;12.90;6.60;;;;;;;45.78;16.62;99787.66;5030367;28;20044;-75
2021/08/17 08:13:17;;;;;;;14.27;5.82;;;;;;;46.42;16.83;99783.78;5031429;28;20132;-77
2021/08/17 08:15:43;;;;;;;7.00;5.65;;;;;;;46.34;16.55;99789.66;5024257;28;20426;-75
2021/08/17 08:18:12;;;;;;;8.55;6.00;;;;;;;45.35;17.02;99765.13;5033518;28;20124;-75
2021/08/17 08:20:38;;;;;;;11.07;5.83;;;;;;;45.35;17.38;99770.63;5057865;28;20055;-77
2021/08/17 08:23:08;;;;;;;8.90;5.23;;;;;;;45.97;17.06;99768.19;5048732;28;20526;-76
2021/08/17 08:25:35;;;;;;;8.65;5.53;;;;;;;46.51;16.90;99781.44;5048762;28;20049;-76
2021/08/17 08:28:01;;;;;;;7.28;5.53;;;;;;;46.52;15.86;99768.50;5055912;28;20116;-77
2021/08/17 08:30:33;;;;;;;12.65;5.95;;;;;;;46.88;15.99;99727.75;5036335;28;20061;-75
2021/08/17 08:33:11;;;;;;;10.55;6.05;;;;;;;46.76;15.58;99727.84;5036673;28;20045;-76
2021/08/17 08:35:43;;;;;;;8.05;6.05;;;;;;;46.10;16.81;99726.63;5034556;28;20098;-76
2021/08/17 08:38:13;;;;;;;6.82;6.10;;;;;;;46.70;16.12;99784.69;5017865;28;20136;-78
2021/08/17 08:40:47;;;;;;;8.07;6.00;;;;;;;47.83;14.60;99765.09;5050847;28;20365;-76
2021/08/17 08:43:24;;;;;;;5.93;5.43;;;;;;;48.03;15.20;99758.97;5050494;28;20439;-75
2021/08/17 08:45:53;;;;;;;9.10;7.03;;;;;;;47.55;15.14;99769.81;5051501;28;20044;-75
2021/08/17 08:48:23;;;;;;;;;;;;;;;47.26;15.50;99781.06;5016786;28;20059;-76
2021/08/17 08:50:51;;;;;;;6.57;5.97;;;;;;;47.74;15.73;99744.66;5033255;28;19952;-76
2021/08/17 08:53:20;;;;;;;8.65;6.03;;;;;;;47.91;15.73;99770.13;5032576;28;20052;-76
2021/08/17 08:55:46;;;;;;;6.90;6.20;;;;;;;48.65;15.03;99761.31;5033042;28;20051;-76
2021/08/17 08:58:14;;;;;;;6.90;5.90;;;;;;;49.18;14.65;99755.75;5049876;28;20094;-76
2021/08/17 09:00:40;;;;;;;8.95;7.32;;;;;;;48.18;14.44;99769.28;5016904;28;20048;-78
2021/08/17 09:03:09;;;;;;;7.47;6.78;;;;;;;47.45;14.98;99770.50;5016699;28;20400;-77
2021/08/17 09:05:55;;;;;;;8.10;6.47;;;;;;;47.39;15.22;99774.31;5017207;28;20053;-77
2021/08/17 09:08:28;;;;;;;8.10;6.60;;;;;;;47.61;15.32;99754.19;5044313;28;20580;-76
2021/08/17 09:11:14;;;;;;;7.30;5.93;;;;;;;49.57;13.84;99763.59;5031045;28;20091;-77
2021/08/17 09:13:39;;;;;;;8.52;6.50;;;;;;;50.68;13.34;99788.97;5031927;28;20164;-77
2021/08/17 09:16:30;;;;;;;6.43;5.82;;;;;;;51.23;12.61;99777.13;5024222;28;20041;-76
2021/08/17 09:18:56;;;;;;;10.25;6.35;;;;;;;50.15;12.93;99772.75;5029997;28;20044;-79
2021/08/17 09:21:34;;;;;;;7.32;6.50;;;;;;;49.10;13.60;99770.09;5051602;28;20528;-76
2021/08/17 09:24:24;;;;;;;7.32;5.78;;;;;;;49.11;13.90;99761.50;5053821;28;20033;-76
2021/08/17 09:26:55;;;;;;;6.88;6.22;;;;;;;50.25;12.29;99767.19;5055065;28;20083;-77
2021/08/17 09:29:24;;;;;;;8.30;6.40;;;;;;;49.85;13.08;99739.31;5053512;28;20449;-77
2021/08/17 09:31:52;;;;;;;9.65;6.10;;;;;;;50.22;12.82;99740.09;5058253;28;20048;-76
2021/08/17 09:34:19;;;;;;;6.13;5.60;;;;;;;51.00;13.23;99753.69;5056428;28;20085;-76
2021/08/17 09:36:50;;;;;;;10.70;6.60;;;;;;;50.74;12.88;99753.78;5039462;28;20052;-76
2021/08/17 09:39:34;;;;;;;9.00;6.82;;;;;;;50.03;12.52;99748.94;5056244;28;20045;-76
2021/08/17 09:42:16;;;;;;;9.47;6.67;;;;;;;47.53;14.41;99744.44;5039582;28;20520;-76
2021/08/17 09:44:48;;;;;;;8.17;6.83;;;;;;;45.91;16.16;99733.44;5039864;28;20429;-78
2021/08/17 09:47:14;;;;;;;7.55;6.45;;;;;;;45.47;16.87;99734.88;5056161;28;20094;-76
2021/08/17 09:49:43;;;;;;;7.35;6.63;;;;;;;46.35;15.85;99730.03;5023746;28;20131;-77
2021/08/17 09:52:17;;;;;;;7.55;6.78;;;;;;;46.19;16.01;99731.72;5056742;28;20402;-75
2021/08/17 09:54:45;;;;;;;8.05;6.57;;;;;;;46.50;16.04;99737.66;5070342;28;20137;-77
2021/08/17 09:57:15;;;;;;;8.27;6.93;;;;;;;47.76;15.19;99732.25;5063523;28;20044;-75
2021/08/17 09:59:42;;;;;;;;;;;;;;;46.66;15.83;99736.81;5060482;28;20071;-77
2021/08/17 10:02:09;;;;;;;8.18;6.57;;;;;;;45.72;16.66;99733.69;5061997;28;19916;-78
2021/08/17 10:04:37;;;;;;;7.05;6.45;;;;;;;45.20;17.21;99715.41;5063742;28;20037;-77
2021/08/17 10:07:05;;;;;;;7.00;6.40;;;;;;;45.81;16.36;99720.38;5069802;28;20045;-75
2021/08/17 10:09:33;;;;;;;8.93;7.00;;;;;;;46.17;16.26;99735.56;5056767;28;20048;-76
2021/08/17 10:12:00;;;;;;;11.70;8.90;;;;;;;46.04;15.84;99724.88;5051041;28;20066;-75
2021/08/17 10:14:26;;;;;;;9.02;7.25;;;;;;;45.95;16.27;99709.88;5038042;28;20035;-75
2021/08/17 10:16:52;;;;;;;8.65;6.45;;;;;;;46.31;16.17;99713.19;5059402;28;20037;-77
2021/08/17 10:19:21;;;;;;;9.68;7.35;;;;;;;46.74;15.33;99721.78;5075104;28;20040;-77
2021/08/17 10:21:59;;;;;;;7.70;6.93;;;;;;;46.11;15.81;99717.31;5073288;28;20025;-79
2021/08/17 10:24:42;;;;;;;8.85;7.10;;;;;;;45.11;16.81;99709.47;5069295;28;20052;-77
2021/08/17 10:27:29;;;;;;;9.27;7.10;;;;;;;45.32;16.16;99707.16;5068779;28;20736;-77
2021/08/17 10:30:29;;;;;;;7.85;6.80;;;;;;;44.91;16.79;99691.50;5072337;28;20036;-77
2021/08/17 10:32:57;;;;;;;9.98;6.85;;;;;;;44.89;16.85;99699.19;5065548;28;20123;-79
2021/08/17 10:38:06;;;;;;;10.80;7.05;;;;;;;44.01;17.89;99699.06;5053357;28;20072;-76
2021/08/17 10:40:54;;;;;;;9.90;6.53;;;;;;;42.25;19.56;99700.50;5053940;28;20122;-79
2021/08/17 10:43:41;;;;;;;8.77;6.70;;;;;;;40.46;20.57;99678.38;5031664;28;20045;-79
2021/08/17 10:46:10;;;;;;;9.77;7.13;;;;;;;38.93;22.23;99675.22;5033316;28;20045;-77
2021/08/17 10:48:51;;;;;;;10.98;6.72;;;;;;;38.12;23.44;99696.41;5017956;28;20520;-75
2021/08/17 10:51:22;;;;;;;8.75;6.60;;;;;;;37.38;23.56;99694.84;5035585;28;20041;-77
2021/08/17 10:54:14;;;;;;;9.50;6.60;;;;;;;36.79;24.05;99674.91;5034973;28;20033;-77
2021/08/17 10:56:44;;;;;;;10.85;6.50;;;;;;;36.39;24.75;99690.56;5017766;28;20068;-78
2021/08/17 10:59:10;;;;;;;8.52;6.18;;;;;;;36.15;25.83;99681.66;5033975;28;20572;-78
2021/08/17 11:01:45;;;;;;;10.90;6.00;;;;;;;35.82;26.19;99696.28;5032306;28;20079;-80
2021/08/17 11:04:25;;;;;;;10.82;6.30;;;;;;;35.54;26.39;99683.31;5039457;28;20052;-76
2021/08/17 11:06:52;;;;;;;7.82;6.35;;;;;;;35.26;26.46;99683.81;5044231;28;20135;-76
2021/08/17 11:09:22;;;;;;;9.98;6.38;;;;;;;34.95;26.96;99681.91;5051427;28;20179;-78
2021/08/17 11:11:58;;;;;;;7.85;6.18;;;;;;;34.75;27.04;99678.78;5054334;28;20053;-79
2021/08/17 11:14:27;;;;;;;9.10;6.30;;;;;;;34.55;27.55;99670.22;5052318;28;20116;-78
2021/08/17 11:16:56;;;;;;;10.45;7.38;;;;;;;34.44;27.94;99682.22;5032897;28;20045;-79
2021/08/17 11:19:25;;;;;;;8.65;6.90;;;;;;;34.14;28.15;99684.59;5051461;28;20072;-79
2021/08/17 11:21:55;;;;;;;8.43;6.63;;;;;;;33.86;28.69;99684.94;5050846;28;20033;-75
2021/08/17 11:24:20;;;;;;;10.50;6.63;;;;;;;33.65;29.38;99688.94;5052448;28;20060;-76
2021/08/17 11:27:01;;;;;;;8.40;5.95;;;;;;;33.42;29.15;99696.00;5052188;28;20110;-76
2021/08/17 11:29:40;;;;;;;11.93;6.20;;;;;;;33.11;29.81;99694.69;5052416;28;20132;-75
2021/08/17 11:32:09;;;;;;;11.70;6.25;;;;;;;32.84;29.79;99684.97;5035560;28;20036;-77
2021/08/17 11:34:40;;;;;;;8.63;6.20;;;;;;;32.68;29.84;99683.00;5053643;28;20079;-75
2021/08/17 11:37:13;;;;;;;9.50;6.30;;;;;;;32.59;29.82;99682.13;5054639;28;20045;-79
2021/08/17 11:39:45;;;;;;;11.23;6.47;;;;;;;32.45;30.34;99678.19;5054279;28;20055;-77
2021/08/17 11:42:13;;;;;;;7.70;6.32;;;;;;;32.39;30.07;99676.97;5052787;28;20197;-77